sensor_id;sensor_type;location;lat;lon;timestamp;pressure;altitude;pressure_sealevel;temperature;humidity
35918;BME280;22011;59.912;30.300;2023-08-31T00:01:31;100681.53;;;20.68;73.06
35918;BME280;22011;59.912;30.300;2023-08-31T00:03:59;100667.88;;;20.63;73.98
35918;BME280;22011;59.912;30.300;2023-08-31T00:06:27;100667.75;;;20.58;74.23
35918;BME280;22011;59.912;30.300;2023-08-31T00:08:55;100666.34;;;20.55;74.55
35918;BME280;22011;59.912;30.300;2023-08-31T00:11:23;100680.91;;;20.54;74.87
35918;BME280;22011;59.912;30.300;2023-08-31T00:13:53;100631.16;;;20.55;75.00
35918;BME280;22011;59.912;30.300;2023-08-31T00:16:24;100612.91;;;20.63;76.59
35918;BME280;22011;59.912;30.300;2023-08-31T00:18:52;100609.59;;;20.49;75.71
35918;BME280;22011;59.912;30.300;2023-08-31T00:21:21;100599.00;;;20.47;75.59
35918;BME280;22011;59.912;30.300;2023-08-31T00:23:49;100603.84;;;20.45;76.34
35918;BME280;22011;59.912;30.300;2023-08-31T00:26:16;100635.97;;;20.12;77.19
35918;BME280;22011;59.912;30.300;2023-08-31T00:28:47;100626.34;;;20.28;76.78
35918;BME280;22011;59.912;30.300;2023-08-31T00:31:17;100623.56;;;20.34;76.23
35918;BME280;22011;59.912;30.300;2023-08-31T00:33:45;100599.19;;;20.34;76.32
35918;BME280;22011;59.912;30.300;2023-08-31T00:36:14;100595.91;;;20.32;76.76
35918;BME280;22011;59.912;30.300;2023-08-31T00:38:42;100627.47;;;20.38;75.53
35918;BME280;22011;59.912;30.300;2023-08-31T00:41:09;100634.44;;;20.46;74.85
35918;BME280;22011;59.912;30.300;2023-08-31T00:43:37;100631.19;;;20.37;75.58
35918;BME280;22011;59.912;30.300;2023-08-31T00:46:05;100631.53;;;20.29;76.17
35918;BME280;22011;59.912;30.300;2023-08-31T00:48:34;100623.53;;;20.22;77.05
35918;BME280;22011;59.912;30.300;2023-08-31T00:51:01;100634.81;;;20.19;76.97
35918;BME280;22011;59.912;30.300;2023-08-31T00:53:30;100629.84;;;20.16;77.01
35918;BME280;22011;59.912;30.300;2023-08-31T00:56:00;100634.22;;;20.17;76.90
35918;BME280;22011;59.912;30.300;2023-08-31T00:58:28;100633.63;;;20.15;76.64
35918;BME280;22011;59.912;30.300;2023-08-31T01:01:02;100636.59;;;20.25;77.48
35918;BME280;22011;59.912;30.300;2023-08-31T01:03:38;100641.78;;;20.27;76.49
35918;BME280;22011;59.912;30.300;2023-08-31T01:06:15;100656.25;;;20.33;76.54
35918;BME280;22011;59.912;30.300;2023-08-31T01:08:52;100644.00;;;20.30;76.69
35918;BME280;22011;59.912;30.300;2023-08-31T01:11:30;100645.31;;;20.28;77.07
35918;BME280;22011;59.912;30.300;2023-08-31T01:14:01;100639.94;;;20.09;77.10
35918;BME280;22011;59.912;30.300;2023-08-31T01:16:32;100625.38;;;20.10;77.17
35918;BME280;22011;59.912;30.300;2023-08-31T01:19:06;100629.03;;;20.16;76.94
35918;BME280;22011;59.912;30.300;2023-08-31T01:21:38;100607.84;;;20.13;76.30
35918;BME280;22011;59.912;30.300;2023-08-31T01:24:09;100611.03;;;20.10;76.46
35918;BME280;22011;59.912;30.300;2023-08-31T01:26:38;100615.25;;;20.06;75.93
35918;BME280;22011;59.912;30.300;2023-08-31T01:29:07;100606.44;;;20.10;75.85
35918;BME280;22011;59.912;30.300;2023-08-31T01:31:41;100600.94;;;20.17;76.49
35918;BME280;22011;59.912;30.300;2023-08-31T01:34:10;100589.13;;;20.00;76.04
35918;BME280;22011;59.912;30.300;2023-08-31T01:36:44;100575.03;;;20.09;77.02
35918;BME280;22011;59.912;30.300;2023-08-31T01:39:35;100576.31;;;20.07;77.14
35918;BME280;22011;59.912;30.300;2023-08-31T01:42:08;100584.19;;;19.97;76.21
35918;BME280;22011;59.912;30.300;2023-08-31T01:44:40;100583.03;;;20.04;75.72
35918;BME280;22011;59.912;30.300;2023-08-31T01:47:09;100575.59;;;20.00;76.08
35918;BME280;22011;59.912;30.300;2023-08-31T01:49:38;100556.53;;;19.95;76.28
35918;BME280;22011;59.912;30.300;2023-08-31T01:52:06;100533.72;;;19.90;76.91
35918;BME280;22011;59.912;30.300;2023-08-31T01:54:35;100529.50;;;19.95;76.66
35918;BME280;22011;59.912;30.300;2023-08-31T01:57:04;100541.59;;;19.92;76.54
35918;BME280;22011;59.912;30.300;2023-08-31T01:59:32;100546.66;;;19.88;76.83
35918;BME280;22011;59.912;30.300;2023-08-31T02:02:00;100531.63;;;19.92;76.42
35918;BME280;22011;59.912;30.300;2023-08-31T02:04:28;100532.09;;;19.89;76.93
35918;BME280;22011;59.912;30.300;2023-08-31T02:06:57;100525.03;;;19.88;77.15
35918;BME280;22011;59.912;30.300;2023-08-31T02:09:24;100510.44;;;19.89;76.65
35918;BME280;22011;59.912;30.300;2023-08-31T02:11:53;100494.13;;;19.96;76.95
35918;BME280;22011;59.912;30.300;2023-08-31T02:14:21;100499.16;;;19.92;76.62
35918;BME280;22011;59.912;30.300;2023-08-31T02:16:49;100506.47;;;19.92;76.69
35918;BME280;22011;59.912;30.300;2023-08-31T02:19:17;100492.13;;;19.91;76.66
35918;BME280;22011;59.912;30.300;2023-08-31T02:21:44;100482.22;;;19.85;76.71
35918;BME280;22011;59.912;30.300;2023-08-31T02:24:12;100478.81;;;19.90;76.90
35918;BME280;22011;59.912;30.300;2023-08-31T02:26:40;100488.00;;;19.89;77.06
35918;BME280;22011;59.912;30.300;2023-08-31T02:29:09;100492.13;;;19.91;77.14
35918;BME280;22011;59.912;30.300;2023-08-31T02:31:37;100482.81;;;19.87;76.67
35918;BME280;22011;59.912;30.300;2023-08-31T02:34:05;100478.00;;;19.89;77.01
35918;BME280;22011;59.912;30.300;2023-08-31T02:36:32;100476.13;;;19.90;77.15
35918;BME280;22011;59.912;30.300;2023-08-31T02:39:00;100464.72;;;19.88;77.60
35918;BME280;22011;59.912;30.300;2023-08-31T02:41:29;100473.66;;;19.88;77.25
35918;BME280;22011;59.912;30.300;2023-08-31T02:43:57;100470.94;;;19.88;77.50
35918;BME280;22011;59.912;30.300;2023-08-31T02:46:27;100472.94;;;19.93;77.92
35918;BME280;22011;59.912;30.300;2023-08-31T02:48:54;100494.13;;;19.96;77.40
35918;BME280;22011;59.912;30.300;2023-08-31T02:51:22;100490.59;;;19.96;77.20
35918;BME280;22011;59.912;30.300;2023-08-31T02:53:50;100497.06;;;19.95;77.23
35918;BME280;22011;59.912;30.300;2023-08-31T02:56:19;100501.19;;;19.97;76.90
35918;BME280;22011;59.912;30.300;2023-08-31T02:58:47;100509.53;;;19.96;77.12
35918;BME280;22011;59.912;30.300;2023-08-31T03:01:14;100491.66;;;19.95;77.06
35918;BME280;22011;59.912;30.300;2023-08-31T03:03:47;100515.28;;;19.99;77.32
35918;BME280;22011;59.912;30.300;2023-08-31T03:06:15;100521.88;;;20.03;76.96
35918;BME280;22011;59.912;30.300;2023-08-31T03:08:43;100524.31;;;19.93;76.95
35918;BME280;22011;59.912;30.300;2023-08-31T03:11:12;100524.31;;;19.93;77.59
35918;BME280;22011;59.912;30.300;2023-08-31T03:13:41;100534.91;;;19.95;77.01
35918;BME280;22011;59.912;30.300;2023-08-31T03:16:09;100531.16;;;19.96;76.94
35918;BME280;22011;59.912;30.300;2023-08-31T03:18:37;100523.50;;;19.92;77.18
35918;BME280;22011;59.912;30.300;2023-08-31T03:21:06;100529.75;;;19.93;77.42
35918;BME280;22011;59.912;30.300;2023-08-31T03:23:34;100517.22;;;19.57;78.66
35918;BME280;22011;59.912;30.300;2023-08-31T03:26:06;100528.38;;;19.61;79.56
35918;BME280;22011;59.912;30.300;2023-08-31T03:28:34;100514.81;;;19.49;79.44
35918;BME280;22011;59.912;30.300;2023-08-31T03:31:02;100524.41;;;19.45;79.23
35918;BME280;22011;59.912;30.300;2023-08-31T03:33:29;100522.31;;;19.47;79.32
35918;BME280;22011;59.912;30.300;2023-08-31T03:36:00;100525.09;;;19.58;79.35
35918;BME280;22011;59.912;30.300;2023-08-31T03:38:30;100517.81;;;19.59;78.80
35918;BME280;22011;59.912;30.300;2023-08-31T03:41:00;100514.97;;;19.54;78.86
35918;BME280;22011;59.912;30.300;2023-08-31T03:43:28;100518.94;;;19.51;79.05
35918;BME280;22011;59.912;30.300;2023-08-31T03:45:56;100515.63;;;19.49;79.14
35918;BME280;22011;59.912;30.300;2023-08-31T03:48:23;100494.69;;;19.45;79.36
35918;BME280;22011;59.912;30.300;2023-08-31T03:50:52;100506.19;;;19.40;79.53
35918;BME280;22011;59.912;30.300;2023-08-31T03:53:22;100524.50;;;19.38;79.63
35918;BME280;22011;59.912;30.300;2023-08-31T03:55:56;100519.94;;;19.39;79.72
35918;BME280;22011;59.912;30.300;2023-08-31T03:58:24;100536.41;;;19.79;80.64
35918;BME280;22011;59.912;30.300;2023-08-31T04:00:54;100532.75;;;19.43;79.15
35918;BME280;22011;59.912;30.300;2023-08-31T04:03:21;100525.78;;;19.36;79.59
35918;BME280;22011;59.912;30.300;2023-08-31T04:05:53;100527.34;;;19.43;80.36
35918;BME280;22011;59.912;30.300;2023-08-31T04:08:21;100532.00;;;19.36;79.90
35918;BME280;22011;59.912;30.300;2023-08-31T04:10:49;100524.13;;;19.35;79.84
35918;BME280;22011;59.912;30.300;2023-08-31T04:13:18;100532.84;;;19.37;80.14
35918;BME280;22011;59.912;30.300;2023-08-31T04:15:46;100527.44;;;19.37;79.86
35918;BME280;22011;59.912;30.300;2023-08-31T04:18:15;100529.69;;;19.40;80.14
35918;BME280;22011;59.912;30.300;2023-08-31T04:20:48;100534.31;;;19.51;80.33
35918;BME280;22011;59.912;30.300;2023-08-31T04:23:17;100523.00;;;19.42;79.46
35918;BME280;22011;59.912;30.300;2023-08-31T04:25:45;100523.22;;;19.41;79.67
35918;BME280;22011;59.912;30.300;2023-08-31T04:28:12;100521.56;;;19.40;79.63
35918;BME280;22011;59.912;30.300;2023-08-31T04:30:41;100534.03;;;19.41;80.02
35918;BME280;22011;59.912;30.300;2023-08-31T04:33:09;100519.69;;;19.40;79.68
35918;BME280;22011;59.912;30.300;2023-08-31T04:35:37;100536.13;;;19.39;79.97
35918;BME280;22011;59.912;30.300;2023-08-31T04:38:04;100531.34;;;19.41;79.77
35918;BME280;22011;59.912;30.300;2023-08-31T04:40:32;100539.81;;;19.44;80.06
35918;BME280;22011;59.912;30.300;2023-08-31T04:42:59;100529.81;;;19.45;79.91
35918;BME280;22011;59.912;30.300;2023-08-31T04:45:28;100536.28;;;19.44;79.83
35918;BME280;22011;59.912;30.300;2023-08-31T04:47:57;100549.50;;;19.52;80.42
35918;BME280;22011;59.912;30.300;2023-08-31T04:50:25;100558.81;;;19.56;80.13
35918;BME280;22011;59.912;30.300;2023-08-31T04:52:53;100542.50;;;19.63;79.73
35918;BME280;22011;59.912;30.300;2023-08-31T04:55:21;100544.41;;;19.74;79.66
35918;BME280;22011;59.912;30.300;2023-08-31T04:57:49;100549.44;;;19.70;79.39
35918;BME280;22011;59.912;30.300;2023-08-31T05:00:17;100540.75;;;19.80;79.22
35918;BME280;22011;59.912;30.300;2023-08-31T05:02:45;100555.22;;;19.85;78.93
35918;BME280;22011;59.912;30.300;2023-08-31T05:05:14;100552.69;;;20.02;78.88
35918;BME280;22011;59.912;30.300;2023-08-31T05:07:41;100553.16;;;20.11;78.62
35918;BME280;22011;59.912;30.300;2023-08-31T05:10:09;100547.34;;;20.61;76.09
35918;BME280;22011;59.912;30.300;2023-08-31T05:12:37;100545.56;;;20.78;75.55
35918;BME280;22011;59.912;30.300;2023-08-31T05:15:06;100553.66;;;20.89;74.93
35918;BME280;22011;59.912;30.300;2023-08-31T05:17:35;100548.69;;;20.98;74.66
35918;BME280;22011;59.912;30.300;2023-08-31T05:20:04;100543.84;;;21.00;74.62
35918;BME280;22011;59.912;30.300;2023-08-31T05:22:35;100546.78;;;21.10;74.62
35918;BME280;22011;59.912;30.300;2023-08-31T05:25:04;100544.06;;;21.10;74.00
35918;BME280;22011;59.912;30.300;2023-08-31T05:27:32;100553.97;;;21.05;74.13
35918;BME280;22011;59.912;30.300;2023-08-31T05:29:59;100551.28;;;21.05;74.32
35918;BME280;22011;59.912;30.300;2023-08-31T05:32:28;100551.63;;;21.08;74.17
35918;BME280;22011;59.912;30.300;2023-08-31T05:34:55;100551.47;;;21.15;74.49
35918;BME280;22011;59.912;30.300;2023-08-31T05:37:24;100551.22;;;20.76;75.55
35918;BME280;22011;59.912;30.300;2023-08-31T05:39:53;100557.34;;;20.72;76.19
35918;BME280;22011;59.912;30.300;2023-08-31T05:42:21;100566.53;;;20.71;76.05
35918;BME280;22011;59.912;30.300;2023-08-31T05:44:48;100556.06;;;20.63;76.04
35918;BME280;22011;59.912;30.300;2023-08-31T05:47:16;100557.72;;;20.64;76.38
35918;BME280;22011;59.912;30.300;2023-08-31T05:49:44;100560.19;;;20.65;76.44
35918;BME280;22011;59.912;30.300;2023-08-31T05:52:11;100565.84;;;20.64;75.91
35918;BME280;22011;59.912;30.300;2023-08-31T05:54:39;100559.59;;;20.63;76.18
35918;BME280;22011;59.912;30.300;2023-08-31T05:57:08;100563.25;;;20.69;76.61
35918;BME280;22011;59.912;30.300;2023-08-31T05:59:35;100567.03;;;21.08;74.88
35918;BME280;22011;59.912;30.300;2023-08-31T06:02:03;100568.63;;;20.80;75.65
35918;BME280;22011;59.912;30.300;2023-08-31T06:04:31;100567.56;;;20.81;75.56
35918;BME280;22011;59.912;30.300;2023-08-31T06:06:59;100564.94;;;20.98;74.92
35918;BME280;22011;59.912;30.300;2023-08-31T06:09:26;100565.91;;;20.92;75.72
35918;BME280;22011;59.912;30.300;2023-08-31T06:11:54;100561.06;;;20.94;75.70
35918;BME280;22011;59.912;30.300;2023-08-31T06:14:23;100576.38;;;21.00;75.79
35918;BME280;22011;59.912;30.300;2023-08-31T06:16:50;100579.28;;;21.10;75.42
35918;BME280;22011;59.912;30.300;2023-08-31T06:19:18;100572.69;;;21.18;75.11
35918;BME280;22011;59.912;30.300;2023-08-31T06:21:46;100569.63;;;21.26;74.97
35918;BME280;22011;59.912;30.300;2023-08-31T06:24:14;100569.00;;;21.36;74.34
35918;BME280;22011;59.912;30.300;2023-08-31T06:26:42;100563.44;;;21.42;74.07
35918;BME280;22011;59.912;30.300;2023-08-31T06:29:09;100564.94;;;21.50;73.93
35918;BME280;22011;59.912;30.300;2023-08-31T06:31:38;100580.94;;;21.63;73.76
35918;BME280;22011;59.912;30.300;2023-08-31T06:34:06;100569.22;;;21.74;73.30
35918;BME280;22011;59.912;30.300;2023-08-31T06:36:35;100573.72;;;21.85;72.85
35918;BME280;22011;59.912;30.300;2023-08-31T06:39:03;100575.69;;;21.90;72.69
35918;BME280;22011;59.912;30.300;2023-08-31T06:41:30;100577.19;;;21.98;72.19
35918;BME280;22011;59.912;30.300;2023-08-31T06:43:58;100576.13;;;21.99;72.22
35918;BME280;22011;59.912;30.300;2023-08-31T06:46:26;100570.13;;;21.97;72.71
35918;BME280;22011;59.912;30.300;2023-08-31T06:48:56;100568.34;;;22.02;72.71
35918;BME280;22011;59.912;30.300;2023-08-31T06:51:23;100561.94;;;22.08;71.86
35918;BME280;22011;59.912;30.300;2023-08-31T06:53:51;100567.72;;;22.12;71.89
35918;BME280;22011;59.912;30.300;2023-08-31T06:56:19;100560.47;;;22.17;71.64
35918;BME280;22011;59.912;30.300;2023-08-31T06:58:46;100554.88;;;22.24;71.59
35918;BME280;22011;59.912;30.300;2023-08-31T07:01:14;100563.44;;;22.33;71.60
35918;BME280;22011;59.912;30.300;2023-08-31T07:03:42;100550.28;;;22.41;71.61
35918;BME280;22011;59.912;30.300;2023-08-31T07:06:11;100557.00;;;22.56;70.82
35918;BME280;22011;59.912;30.300;2023-08-31T07:08:38;100549.31;;;22.69;70.01
35918;BME280;22011;59.912;30.300;2023-08-31T07:11:06;100548.56;;;22.74;69.83
35918;BME280;22011;59.912;30.300;2023-08-31T07:13:34;100544.38;;;22.83;69.52
35918;BME280;22011;59.912;30.300;2023-08-31T07:16:02;100544.41;;;22.88;69.20
35918;BME280;22011;59.912;30.300;2023-08-31T07:18:30;100542.59;;;22.94;69.07
35918;BME280;22011;59.912;30.300;2023-08-31T07:20:58;100544.50;;;22.93;68.90
35918;BME280;22011;59.912;30.300;2023-08-31T07:23:27;100547.84;;;23.00;68.97
35918;BME280;22011;59.912;30.300;2023-08-31T07:25:56;100539.19;;;23.03;69.17
35918;BME280;22011;59.912;30.300;2023-08-31T07:28:26;100539.06;;;22.93;69.08
35918;BME280;22011;59.912;30.300;2023-08-31T07:31:00;100534.81;;;23.02;70.08
35918;BME280;22011;59.912;30.300;2023-08-31T07:33:29;100534.19;;;22.95;69.07
35918;BME280;22011;59.912;30.300;2023-08-31T07:35:57;100533.69;;;22.98;69.00
35918;BME280;22011;59.912;30.300;2023-08-31T07:38:27;100539.50;;;23.07;69.22
35918;BME280;22011;59.912;30.300;2023-08-31T07:40:55;100528.44;;;23.13;68.01
35918;BME280;22011;59.912;30.300;2023-08-31T07:43:22;100535.06;;;23.23;67.86
35918;BME280;22011;59.912;30.300;2023-08-31T07:45:50;100533.75;;;23.25;67.54
35918;BME280;22011;59.912;30.300;2023-08-31T07:48:18;100526.16;;;23.27;67.05
35918;BME280;22011;59.912;30.300;2023-08-31T07:50:45;100523.19;;;23.29;67.25
35918;BME280;22011;59.912;30.300;2023-08-31T07:53:14;100523.00;;;23.35;66.75
35918;BME280;22011;59.912;30.300;2023-08-31T07:55:52;100527.59;;;23.57;66.99
35918;BME280;22011;59.912;30.300;2023-08-31T07:58:21;100513.56;;;23.43;65.71
35918;BME280;22011;59.912;30.300;2023-08-31T08:00:48;100503.56;;;23.48;65.52
35918;BME280;22011;59.912;30.300;2023-08-31T08:03:16;100493.44;;;23.44;65.30
35918;BME280;22011;59.912;30.300;2023-08-31T08:05:44;100504.84;;;23.41;65.57
35918;BME280;22011;59.912;30.300;2023-08-31T08:08:11;100504.63;;;23.47;65.38
35918;BME280;22011;59.912;30.300;2023-08-31T08:10:39;100507.66;;;23.51;65.23
35918;BME280;22011;59.912;30.300;2023-08-31T08:13:08;100507.50;;;23.58;65.27
35918;BME280;22011;59.912;30.300;2023-08-31T08:15:36;100500.16;;;23.58;65.56
35918;BME280;22011;59.912;30.300;2023-08-31T08:18:04;100490.97;;;23.64;65.29
35918;BME280;22011;59.912;30.300;2023-08-31T08:20:31;100489.47;;;23.78;64.14
35918;BME280;22011;59.912;30.300;2023-08-31T08:22:59;100493.34;;;23.88;64.23
35918;BME280;22011;59.912;30.300;2023-08-31T08:25:27;100497.72;;;23.94;63.64
35918;BME280;22011;59.912;30.300;2023-08-31T08:27:54;100487.72;;;24.04;63.27
35918;BME280;22011;59.912;30.300;2023-08-31T08:30:23;100487.84;;;24.20;63.80
35918;BME280;22011;59.912;30.300;2023-08-31T08:32:51;100482.34;;;24.47;62.47
35918;BME280;22011;59.912;30.300;2023-08-31T08:35:19;100476.53;;;24.85;61.16
35918;BME280;22011;59.912;30.300;2023-08-31T08:37:46;100478.91;;;24.66;61.89
35918;BME280;22011;59.912;30.300;2023-08-31T08:40:14;100486.53;;;24.69;61.34
35918;BME280;22011;59.912;30.300;2023-08-31T08:42:43;100478.94;;;24.76;61.50
35918;BME280;22011;59.912;30.300;2023-08-31T08:45:14;100479.31;;;24.95;61.20
35918;BME280;22011;59.912;30.300;2023-08-31T08:47:44;100476.63;;;25.05;61.22
35918;BME280;22011;59.912;30.300;2023-08-31T08:50:12;100471.75;;;25.23;59.95
35918;BME280;22011;59.912;30.300;2023-08-31T08:52:40;100478.03;;;25.23;60.89
35918;BME280;22011;59.912;30.300;2023-08-31T08:55:09;100455.41;;;25.33;60.34
35918;BME280;22011;59.912;30.300;2023-08-31T08:57:37;100456.78;;;25.35;59.74
35918;BME280;22011;59.912;30.300;2023-08-31T09:00:05;100457.66;;;25.71;59.61
35918;BME280;22011;59.912;30.300;2023-08-31T09:02:33;100456.31;;;25.69;59.10
35918;BME280;22011;59.912;30.300;2023-08-31T09:05:03;100465.31;;;25.69;59.44
35918;BME280;22011;59.912;30.300;2023-08-31T09:07:34;100455.22;;;25.85;59.02
35918;BME280;22011;59.912;30.300;2023-08-31T09:10:04;100459.31;;;25.88;58.84
35918;BME280;22011;59.912;30.300;2023-08-31T09:12:36;100447.25;;;26.04;58.76
35918;BME280;22011;59.912;30.300;2023-08-31T09:15:06;100446.66;;;26.43;56.73
35918;BME280;22011;59.912;30.300;2023-08-31T09:17:41;100446.28;;;26.69;57.38
35918;BME280;22011;59.912;30.300;2023-08-31T09:20:12;100445.25;;;26.55;57.27
35918;BME280;22011;59.912;30.300;2023-08-31T09:22:42;100448.59;;;26.17;58.15
35918;BME280;22011;59.912;30.300;2023-08-31T09:25:10;100443.41;;;26.10;58.32
35918;BME280;22011;59.912;30.300;2023-08-31T09:27:38;100446.41;;;26.19;57.90
35918;BME280;22011;59.912;30.300;2023-08-31T09:30:07;100450.72;;;26.55;56.89
35918;BME280;22011;59.912;30.300;2023-08-31T09:32:35;100457.75;;;26.77;56.57
35918;BME280;22011;59.912;30.300;2023-08-31T09:35:03;100446.47;;;26.88;55.81
35918;BME280;22011;59.912;30.300;2023-08-31T09:37:37;100444.25;;;26.95;56.35
35918;BME280;22011;59.912;30.300;2023-08-31T09:40:05;100442.56;;;27.04;55.42
35918;BME280;22011;59.912;30.300;2023-08-31T09:42:36;100451.94;;;26.98;56.53
35918;BME280;22011;59.912;30.300;2023-08-31T09:45:06;100442.06;;;27.02;56.11
35918;BME280;22011;59.912;30.300;2023-08-31T09:47:34;100438.97;;;27.14;55.59
35918;BME280;22011;59.912;30.300;2023-08-31T09:50:03;100437.00;;;27.20;55.12
35918;BME280;22011;59.912;30.300;2023-08-31T09:52:31;100436.16;;;27.24;54.95
35918;BME280;22011;59.912;30.300;2023-08-31T09:55:01;100435.78;;;27.41;54.81
35918;BME280;22011;59.912;30.300;2023-08-31T09:57:31;100443.41;;;27.44;54.50
35918;BME280;22011;59.912;30.300;2023-08-31T10:00:00;100440.34;;;27.51;54.13
35918;BME280;22011;59.912;30.300;2023-08-31T10:02:31;100436.03;;;27.45;54.33
35918;BME280;22011;59.912;30.300;2023-08-31T10:04:59;100430.53;;;27.50;54.11
35918;BME280;22011;59.912;30.300;2023-08-31T10:07:27;100432.13;;;27.56;53.47
35918;BME280;22011;59.912;30.300;2023-08-31T10:09:57;100434.03;;;27.60;53.71
35918;BME280;22011;59.912;30.300;2023-08-31T10:12:27;100437.06;;;27.88;52.51
35918;BME280;22011;59.912;30.300;2023-08-31T10:14:55;100422.81;;;27.91;51.47
35918;BME280;22011;59.912;30.300;2023-08-31T10:17:24;100420.84;;;27.96;52.17
35918;BME280;22011;59.912;30.300;2023-08-31T10:19:53;100426.59;;;27.95;52.18
35918;BME280;22011;59.912;30.300;2023-08-31T10:22:21;100423.34;;;27.93;52.08
35918;BME280;22011;59.912;30.300;2023-08-31T10:24:58;100415.41;;;28.15;52.72
35918;BME280;22011;59.912;30.300;2023-08-31T10:27:28;100409.94;;;27.91;51.80
35918;BME280;22011;59.912;30.300;2023-08-31T10:29:55;100421.63;;;28.50;51.92
35918;BME280;22011;59.912;30.300;2023-08-31T10:32:23;100417.09;;;27.87;51.84
35918;BME280;22011;59.912;30.300;2023-08-31T10:35:08;100420.06;;;28.15;51.71
35918;BME280;22011;59.912;30.300;2023-08-31T10:37:36;100412.47;;;27.83;50.98
35918;BME280;22011;59.912;30.300;2023-08-31T10:40:07;100418.09;;;27.67;52.62
35918;BME280;22011;59.912;30.300;2023-08-31T10:42:46;100417.22;;;27.72;52.45
35918;BME280;22011;59.912;30.300;2023-08-31T10:45:14;100414.38;;;27.48;52.23
35918;BME280;22011;59.912;30.300;2023-08-31T10:47:41;100412.28;;;27.74;51.58
35918;BME280;22011;59.912;30.300;2023-08-31T10:50:20;100427.56;;;27.80;53.11
35918;BME280;22011;59.912;30.300;2023-08-31T10:52:48;100416.66;;;27.36;53.05
35918;BME280;22011;59.912;30.300;2023-08-31T10:55:16;100422.13;;;27.36;52.34
35918;BME280;22011;59.912;30.300;2023-08-31T10:57:45;100410.06;;;27.42;52.39
35918;BME280;22011;59.912;30.300;2023-08-31T11:00:13;100415.19;;;27.49;52.55
35918;BME280;22011;59.912;30.300;2023-08-31T11:02:44;100416.94;;;28.03;51.80
35918;BME280;22011;59.912;30.300;2023-08-31T11:05:14;100412.53;;;28.07;50.75
35918;BME280;22011;59.912;30.300;2023-08-31T11:07:42;100411.63;;;28.11;50.17
35918;BME280;22011;59.912;30.300;2023-08-31T11:10:12;100420.75;;;28.07;50.18
35918;BME280;22011;59.912;30.300;2023-08-31T11:12:41;100426.88;;;27.64;51.49
35918;BME280;22011;59.912;30.300;2023-08-31T11:15:13;100423.31;;;27.64;51.99
35918;BME280;22011;59.912;30.300;2023-08-31T11:17:42;100417.19;;;27.77;51.36
35918;BME280;22011;59.912;30.300;2023-08-31T11:20:13;100403.97;;;28.08;51.72
35918;BME280;22011;59.912;30.300;2023-08-31T11:22:44;100404.06;;;28.03;49.64
35918;BME280;22011;59.912;30.300;2023-08-31T11:25:12;100405.75;;;27.99;50.05
35918;BME280;22011;59.912;30.300;2023-08-31T11:27:40;100410.50;;;27.59;51.45
35918;BME280;22011;59.912;30.300;2023-08-31T11:30:14;100409.63;;;27.64;51.40
35918;BME280;22011;59.912;30.300;2023-08-31T11:32:50;100404.22;;;27.88;50.89
35918;BME280;22011;59.912;30.300;2023-08-31T11:35:18;100404.75;;;27.90;48.98
35918;BME280;22011;59.912;30.300;2023-08-31T11:37:50;100402.44;;;28.02;49.64
35918;BME280;22011;59.912;30.300;2023-08-31T11:40:18;100397.81;;;27.68;48.79
35918;BME280;22011;59.912;30.300;2023-08-31T11:42:47;100402.81;;;27.61;49.06
35918;BME280;22011;59.912;30.300;2023-08-31T11:45:17;100408.19;;;27.72;48.17
35918;BME280;22011;59.912;30.300;2023-08-31T11:47:46;100400.19;;;27.46;48.69
35918;BME280;22011;59.912;30.300;2023-08-31T11:50:16;100405.38;;;27.82;47.71
35918;BME280;22011;59.912;30.300;2023-08-31T11:52:44;100396.53;;;27.90;47.18
35918;BME280;22011;59.912;30.300;2023-08-31T11:55:14;100402.59;;;27.87;48.16
35918;BME280;22011;59.912;30.300;2023-08-31T11:57:48;100409.84;;;27.73;49.82
35918;BME280;22011;59.912;30.300;2023-08-31T12:00:18;100401.47;;;27.54;49.43
35918;BME280;22011;59.912;30.300;2023-08-31T12:02:55;100398.16;;;27.62;50.37
35918;BME280;22011;59.912;30.300;2023-08-31T12:05:23;100395.53;;;27.47;49.48
35918;BME280;22011;59.912;30.300;2023-08-31T12:07:53;100397.63;;;27.55;49.77
35918;BME280;22011;59.912;30.300;2023-08-31T12:10:24;100384.66;;;27.71;49.61
35918;BME280;22011;59.912;30.300;2023-08-31T12:12:52;100380.72;;;27.82;48.76
35918;BME280;22011;59.912;30.300;2023-08-31T12:15:23;100382.06;;;27.84;48.51
35918;BME280;22011;59.912;30.300;2023-08-31T12:17:57;100384.25;;;27.87;47.84
35918;BME280;22011;59.912;30.300;2023-08-31T12:20:25;100377.94;;;27.87;48.17
35918;BME280;22011;59.912;30.300;2023-08-31T12:22:53;100373.53;;;27.91;48.21
35918;BME280;22011;59.912;30.300;2023-08-31T12:25:21;100372.91;;;27.99;47.86
35918;BME280;22011;59.912;30.300;2023-08-31T12:27:48;100376.59;;;28.08;47.82
35918;BME280;22011;59.912;30.300;2023-08-31T12:30:16;100377.59;;;28.17;48.26
35918;BME280;22011;59.912;30.300;2023-08-31T12:32:45;100381.66;;;28.25;47.95
35918;BME280;22011;59.912;30.300;2023-08-31T12:35:13;100388.22;;;28.24;47.97
35918;BME280;22011;59.912;30.300;2023-08-31T12:37:41;100383.59;;;28.19;48.59
35918;BME280;22011;59.912;30.300;2023-08-31T12:40:10;100384.22;;;28.11;48.97
35918;BME280;22011;59.912;30.300;2023-08-31T12:42:38;100377.91;;;27.92;49.69
35918;BME280;22011;59.912;30.300;2023-08-31T12:45:06;100381.88;;;28.05;49.72
35918;BME280;22011;59.912;30.300;2023-08-31T12:47:34;100379.00;;;28.15;48.69
35918;BME280;22011;59.912;30.300;2023-08-31T12:50:04;100380.34;;;28.17;49.10